Time;durP1;ratioP1;P1;durP2;ratioP2;P2;SDS_P1;SDS_P2;PMS_P1;PMS_P2;Temp;Humidity;BMP_temperature;BMP_pressure;BME280_temperature;BME280_humidity;BME280_pressure;Samples;Min_cycle;Max_cycle;Signal;HPM_P1;HPM_P2
2022/11/24 08:12:06;;;;;;;25.77;23.03;;;;;;;;;;5067835;28;20912;-86
2022/11/24 08:14:33;;;;;;;25.40;23.00;;;;;;;;;;5014633;28;1285211;-86
2022/11/24 08:17:00;;;;;;;30.17;24.57;;;;;;;;;;5054935;28;20208;-80
2022/11/24 08:19:27;;;;;;;28.23;24.67;;;;;;;;;;5054514;28;20474;-85
2022/11/24 08:21:55;;;;;;;29.57;24.87;;;;;;;;;;5053482;28;20475;-85
2022/11/24 08:27:26;;;;;;;32.03;24.00;;;;;;;;;;5054353;28;20463;-81
2022/11/24 08:29:53;;;;;;;30.70;25.57;;;;;;;;;;5055343;28;20449;-82
2022/11/24 08:32:21;;;;;;;27.17;24.40;;;;;;;;;;5055446;28;20454;-83
2022/11/24 08:34:48;;;;;;;25.07;23.33;;;;;;;;;;5054586;28;20445;-84
2022/11/24 08:37:15;;;;;;;27.93;24.40;;;;;;;;;;5051245;28;20888;-81
2022/11/24 08:39:43;;;;;;;48.03;40.30;;;;;;;;;;5053847;28;20831;-79
2022/11/24 08:42:10;;;;;;;33.60;25.03;;;;;;;;;;5053382;28;20812;-80
2022/11/24 08:44:38;;;;;;;27.63;24.47;;;;;;;;;;5052871;28;20473;-82
2022/11/24 08:47:05;;;;;;;26.40;23.90;;;;;;;;;;5054125;28;20586;-76
2022/11/24 08:49:32;;;;;;;25.53;23.03;;;;;;;;;;5057596;28;20466;-82
2022/11/24 08:51:59;;;;;;;25.67;23.37;;;;;;;;;;5058341;28;20493;-82
2022/11/24 08:54:26;;;;;;;26.33;23.93;;;;;;;;;;5057975;28;20466;-80
2022/11/24 08:56:54;;;;;;;25.40;23.13;;;;;;;;;;5058009;28;20499;-83
2022/11/24 08:59:21;;;;;;;26.30;23.57;;;;;;;;;;5058886;28;20450;-79
2022/11/24 09:01:49;;;;;;;25.23;22.70;;;;;;;;;;5058675;28;20446;-81
2022/11/24 09:04:16;;;;;;;24.50;21.90;;;;;;;;;;5061258;28;20446;-84
2022/11/24 09:06:43;;;;;;;23.73;21.73;;;;;;;;;;5061931;28;20490;-83
2022/11/24 09:09:11;;;;;;;24.90;21.77;;;;;;;;;;5062342;28;20882;-83
2022/11/24 09:14:19;;;;;;;26.23;24.30;;;;;;;;;;5116524;22;20500;-80
2022/11/24 09:16:47;;;;;;;24.13;22.03;;;;;;;;;;5098411;28;21008;-79
2022/11/24 09:19:15;;;;;;;24.83;22.20;;;;;;;;;;5103415;28;20780;-85
2022/11/24 09:21:42;;;;;;;23.93;21.50;;;;;;;;;;5104334;28;20444;-82
2022/11/24 09:24:11;;;;;;;25.83;22.93;;;;;;;;;;5105048;28;20467;-82
2022/11/24 09:26:38;;;;;;;24.60;22.47;;;;;;;;;;5106939;28;20468;-81
2022/11/24 09:29:06;;;;;;;26.70;23.80;;;;;;;;;;5097295;28;20528;-76
2022/11/24 09:31:35;;;;;;;23.87;21.83;;;;;;;;;;5098645;28;20533;-76
2022/11/24 09:34:02;;;;;;;23.63;21.20;;;;;;;;;;5095990;28;20499;-75
2022/11/24 09:36:31;;;;;;;24.23;21.40;;;;;;;;;;5077023;28;20476;-81
2022/11/24 09:38:58;;;;;;;23.53;21.37;;;;;;;;;;5078626;28;20500;-77
2022/11/24 09:41:36;;;;;;;23.10;21.23;;;;;;;;;;5076035;28;20809;-75
2022/11/24 09:44:08;;;;;;;26.63;21.17;;;;;;;;;;5074599;28;20472;-78
2022/11/24 09:46:40;;;;;;;23.13;20.83;;;;;;;;;;5083886;28;20474;-83
2022/11/24 09:49:10;;;;;;;25.17;21.43;;;;;;;;;;5100199;28;20453;-82
2022/11/24 09:51:39;;;;;;;22.50;20.90;;;;;;;;;;5100393;28;20507;-80
2022/11/24 09:54:10;;;;;;;21.63;20.03;;;;;;;;;;5099008;28;20449;-82
2022/11/24 09:56:39;;;;;;;22.10;20.30;;;;;;;;;;5100025;28;20477;-82
2022/11/24 09:59:10;;;;;;;21.90;19.80;;;;;;;;;;5099432;28;20447;-82
2022/11/24 10:01:40;;;;;;;23.33;21.30;;;;;;;;;;5099394;28;20472;-83
2022/11/24 10:04:13;;;;;;;23.20;20.87;;;;;;;;;;5099764;28;20479;-83
2022/11/24 10:06:48;;;;;;;22.50;20.40;;;;;;;;;;5099917;28;20466;-82
2022/11/24 10:09:39;;;;;;;22.57;20.47;;;;;;;;;;5099720;28;20868;-84
2022/11/24 10:12:13;;;;;;;22.97;20.77;;;;;;;;;;5098271;28;20497;-86
2022/11/24 10:14:51;;;;;;;19.17;18.07;;;;;;;;;;5095577;28;20866;-80
2022/11/24 10:17:25;;;;;;;22.70;20.30;;;;;;;;;;5085985;28;20470;-84
2022/11/24 10:19:57;;;;;;;19.13;18.03;;;;;;;;;;5079972;28;20447;-84
2022/11/24 10:22:35;;;;;;;22.07;20.37;;;;;;;;;;5079275;28;20812;-84
2022/11/24 10:25:08;;;;;;;20.73;18.80;;;;;;;;;;5079287;28;20481;-83
2022/11/24 10:27:36;;;;;;;21.87;20.17;;;;;;;;;;5079980;28;20945;-83
2022/11/24 10:30:12;;;;;;;22.17;20.20;;;;;;;;;;5077041;28;21000;-82
2022/11/24 10:32:41;;;;;;;21.63;20.07;;;;;;;;;;5077907;28;20477;-82
2022/11/24 10:35:14;;;;;;;20.77;18.83;;;;;;;;;;5081074;28;20473;-86
2022/11/24 10:37:43;;;;;;;21.83;19.93;;;;;;;;;;5079523;28;20431;-87
2022/11/24 10:40:13;;;;;;;20.67;19.30;;;;;;;;;;5078951;28;20461;-85
2022/11/24 10:42:41;;;;;;;23.13;21.20;;;;;;;;;;5075893;28;20465;-85
2022/11/24 10:45:11;;;;;;;21.87;19.60;;;;;;;;;;5078644;28;20479;-87
2022/11/24 10:47:39;;;;;;;21.03;19.43;;;;;;;;;;5078098;28;20480;-87
2022/11/24 10:50:12;;;;;;;22.43;20.67;;;;;;;;;;5075432;28;20959;-82
2022/11/24 10:52:42;;;;;;;22.43;20.33;;;;;;;;;;5076844;28;20477;-87
2022/11/24 10:55:10;;;;;;;21.90;19.93;;;;;;;;;;5077121;28;20480;-87
2022/11/24 10:57:38;;;;;;;24.27;22.37;;;;;;;;;;5076100;28;20453;-77
2022/11/24 11:00:25;;;;;;;21.93;20.20;;;;;;;;;;5073467;28;20968;-78
2022/11/24 11:03:10;;;;;;;23.13;21.10;;;;;;;;;;5073471;28;20445;-76
2022/11/24 11:05:41;;;;;;;23.10;21.13;;;;;;;;;;5075745;28;20465;-78
2022/11/24 11:08:32;;;;;;;21.23;19.90;;;;;;;;;;5074790;28;20454;-77
2022/11/24 11:11:18;;;;;;;22.50;21.00;;;;;;;;;;5052677;28;20984;-78
2022/11/24 11:13:52;;;;;;;22.57;21.07;;;;;;;;;;5073875;28;20446;-77
2022/11/24 11:16:25;;;;;;;22.77;20.93;;;;;;;;;;5074847;28;20556;-78
2022/11/24 11:18:52;;;;;;;22.50;20.90;;;;;;;;;;5074627;28;20458;-77
2022/11/24 11:21:27;;;;;;;21.90;20.20;;;;;;;;;;5073629;28;20929;-78
2022/11/24 11:23:54;;;;;;;22.27;20.87;;;;;;;;;;5073309;28;20459;-78
2022/11/24 11:26:31;;;;;;;22.83;20.80;;;;;;;;;;5073826;28;20800;-78
2022/11/24 11:29:00;;;;;;;23.17;20.87;;;;;;;;;;5072496;28;20931;-79
2022/11/24 11:31:28;;;;;;;23.50;21.93;;;;;;;;;;5075527;28;20489;-79
2022/11/24 11:33:56;;;;;;;22.60;20.90;;;;;;;;;;5075627;28;20456;-80
2022/11/24 11:36:23;;;;;;;21.97;20.10;;;;;;;;;;5075863;28;20477;-80
2022/11/24 11:38:51;;;;;;;23.50;22.10;;;;;;;;;;5075658;28;20500;-83
2022/11/24 11:41:20;;;;;;;21.00;19.40;;;;;;;;;;5077539;28;20453;-87
2022/11/24 11:43:50;;;;;;;22.43;21.03;;;;;;;;;;5077832;28;20442;-86
2022/11/24 11:46:19;;;;;;;23.80;22.10;;;;;;;;;;5082784;28;20471;-84
2022/11/24 11:48:47;;;;;;;24.57;22.00;;;;;;;;;;5096966;28;20836;-86
2022/11/24 11:51:27;;;;;;;22.03;20.43;;;;;;;;;;5099776;28;20488;-87
2022/11/24 11:53:59;;;;;;;25.70;23.60;;;;;;;;;;5094403;28;20461;-85
2022/11/24 11:56:29;;;;;;;23.37;21.77;;;;;;;;;;5084382;28;20473;-85
2022/11/24 11:59:19;;;;;;;24.73;22.50;;;;;;;;;;5080177;28;20458;-83
2022/11/24 12:01:55;;;;;;;24.23;22.53;;;;;;;;;;5079263;28;20431;-86
2022/11/24 12:04:28;;;;;;;25.17;23.20;;;;;;;;;;5079292;28;20463;-86
2022/11/24 12:07:13;;;;;;;26.00;24.07;;;;;;;;;;5076056;28;20529;-84
2022/11/24 12:09:46;;;;;;;27.80;25.63;;;;;;;;;;5077262;28;20438;-83
2022/11/24 12:12:26;;;;;;;26.00;23.83;;;;;;;;;;5077895;28;20472;-84
2022/11/24 12:14:57;;;;;;;24.47;22.57;;;;;;;;;;5078402;28;20462;-84
2022/11/24 12:17:31;;;;;;;25.80;23.50;;;;;;;;;;5075774;28;20484;-84
2022/11/24 12:20:05;;;;;;;26.00;23.83;;;;;;;;;;5075873;28;20779;-85
2022/11/24 12:22:37;;;;;;;25.23;23.53;;;;;;;;;;5076157;28;20437;-84
2022/11/24 12:25:15;;;;;;;26.40;24.03;;;;;;;;;;5077025;28;20457;-85
2022/11/24 12:27:50;;;;;;;27.23;24.83;;;;;;;;;;5075380;28;20468;-85
2022/11/24 12:33:34;;;;;;;25.67;23.37;;;;;;;;;;5088412;28;20425;-86
2022/11/24 12:36:04;;;;;;;26.63;24.20;;;;;;;;;;5095443;28;20486;-82
2022/11/24 12:38:38;;;;;;;27.50;24.80;;;;;;;;;;5093890;28;20521;-75
2022/11/24 12:41:12;;;;;;;22.63;21.10;;;;;;;;;;5093224;28;20802;-83
2022/11/24 12:43:41;;;;;;;27.97;25.60;;;;;;;;;;5097124;28;20450;-82
2022/11/24 12:46:11;;;;;;;25.10;23.17;;;;;;;;;;5098147;28;20840;-82
2022/11/24 12:48:43;;;;;;;27.43;25.07;;;;;;;;;;5096964;28;20455;-82
2022/11/24 12:51:15;;;;;;;25.80;24.00;;;;;;;;;;5098146;28;20441;-84
2022/11/24 12:53:43;;;;;;;27.43;25.17;;;;;;;;;;5095464;28;20471;-86
2022/11/24 12:56:12;;;;;;;26.33;24.43;;;;;;;;;;5095598;28;20614;-87
2022/11/24 12:58:44;;;;;;;28.20;26.00;;;;;;;;;;5095574;28;20448;-79
2022/11/24 13:01:17;;;;;;;28.17;25.73;;;;;;;;;;5093536;28;20854;-84
2022/11/24 13:03:56;;;;;;;27.17;25.30;;;;;;;;;;5092022;28;20455;-84
2022/11/24 13:06:26;;;;;;;27.53;25.50;;;;;;;;;;5093992;28;20450;-86
2022/11/24 13:08:53;;;;;;;28.30;26.10;;;;;;;;;;5094754;28;20405;-85
2022/11/24 13:11:27;;;;;;;26.67;24.80;;;;;;;;;;5096982;28;20460;-86
2022/11/24 13:13:58;;;;;;;26.17;24.07;;;;;;;;;;5094175;28;20462;-78
2022/11/24 13:16:26;;;;;;;26.43;24.50;;;;;;;;;;5093498;28;20500;-79
2022/11/24 13:18:56;;;;;;;25.93;23.63;;;;;;;;;;5093682;28;20503;-79
2022/11/24 13:21:34;;;;;;;26.63;24.70;;;;;;;;;;5097035;28;20456;-86
2022/11/24 13:24:02;;;;;;;24.50;22.80;;;;;;;;;;5098259;28;20444;-86
2022/11/24 13:26:30;;;;;;;25.67;23.97;;;;;;;;;;5096626;28;20489;-84
2022/11/24 13:28:59;;;;;;;27.13;24.70;;;;;;;;;;5095105;28;20498;-83
2022/11/24 13:31:26;;;;;;;26.33;24.10;;;;;;;;;;5094580;28;20453;-82
2022/11/24 13:33:55;;;;;;;25.50;23.70;;;;;;;;;;5097713;28;20442;-84
2022/11/24 13:36:32;;;;;;;26.37;24.27;;;;;;;;;;5098020;28;20643;-85
2022/11/24 13:39:00;;;;;;;26.07;24.03;;;;;;;;;;5079766;28;20457;-84
2022/11/24 13:41:48;;;;;;;28.03;26.13;;;;;;;;;;5078064;28;20452;-84
2022/11/24 13:44:20;;;;;;;27.80;25.80;;;;;;;;;;5077923;28;20465;-84
2022/11/24 13:46:56;;;;;;;25.00;23.30;;;;;;;;;;5077422;28;20478;-79
2022/11/24 13:49:37;;;;;;;27.87;25.83;;;;;;;;;;5078119;28;20469;-78
2022/11/24 13:52:19;;;;;;;24.93;23.00;;;;;;;;;;5075077;28;20505;-78
2022/11/24 13:54:56;;;;;;;26.90;24.90;;;;;;;;;;5076451;28;20439;-77
2022/11/24 13:57:34;;;;;;;26.93;24.93;;;;;;;;;;5076067;28;20507;-78
2022/11/24 14:00:01;;;;;;;26.27;24.13;;;;;;;;;;5076284;28;20459;-79
2022/11/24 14:02:29;;;;;;;26.07;24.17;;;;;;;;;;5075708;28;20441;-79
2022/11/24 14:04:57;;;;;;;28.73;26.43;;;;;;;;;;5075746;28;20461;-78
2022/11/24 14:07:24;;;;;;;27.57;25.33;;;;;;;;;;5075641;28;20448;-77
2022/11/24 14:09:52;;;;;;;27.13;24.60;;;;;;;;;;5075157;28;20925;-79
2022/11/24 14:12:20;;;;;;;26.60;24.83;;;;;;;;;;5074694;28;20480;-78
2022/11/24 14:14:48;;;;;;;27.80;25.60;;;;;;;;;;5074916;28;20479;-79
2022/11/24 14:17:16;;;;;;;26.90;24.80;;;;;;;;;;5074912;28;20453;-78
2022/11/24 14:19:44;;;;;;;25.67;23.80;;;;;;;;;;5075419;28;20437;-77
2022/11/24 14:22:16;;;;;;;28.80;26.43;;;;;;;;;;5074693;28;20441;-78
2022/11/24 14:24:44;;;;;;;32.50;29.60;;;;;;;;;;5074441;28;20471;-77
2022/11/24 14:27:14;;;;;;;27.10;25.30;;;;;;;;;;5075139;28;20439;-77
2022/11/24 14:29:52;;;;;;;27.43;25.30;;;;;;;;;;5075126;28;20483;-79
2022/11/24 14:32:20;;;;;;;28.30;26.00;;;;;;;;;;5073880;28;20493;-81
2022/11/24 14:34:47;;;;;;;27.07;24.87;;;;;;;;;;5075273;28;20565;-77
2022/11/24 14:37:16;;;;;;;28.40;25.43;;;;;;;;;;5074543;28;21315;-77
2022/11/24 14:39:43;;;;;;;28.43;25.83;;;;;;;;;;5074921;28;20457;-77
2022/11/24 14:42:17;;;;;;;27.00;25.07;;;;;;;;;;5074089;28;20449;-78
2022/11/24 14:44:46;;;;;;;27.27;25.27;;;;;;;;;;5074561;28;20477;-77
2022/11/24 14:47:15;;;;;;;27.13;25.17;;;;;;;;;;5073909;28;20443;-77
2022/11/24 14:49:43;;;;;;;26.97;24.97;;;;;;;;;;5074458;28;20851;-77
2022/11/24 14:52:12;;;;;;;27.00;24.80;;;;;;;;;;5073870;28;20481;-77
2022/11/24 14:54:46;;;;;;;27.30;25.13;;;;;;;;;;5074219;28;20450;-77
2022/11/24 14:57:22;;;;;;;27.40;25.50;;;;;;;;;;5073881;28;20477;-77
2022/11/24 15:00:04;;;;;;;28.27;25.80;;;;;;;;;;5074062;28;20903;-77
2022/11/24 15:02:39;;;;;;;27.93;25.90;;;;;;;;;;5073775;28;20428;-77
2022/11/24 15:05:18;;;;;;;28.03;25.60;;;;;;;;;;5074313;28;20496;-89
2022/11/24 15:07:50;;;;;;;27.83;25.67;;;;;;;;;;5078847;28;20459;-86
2022/11/24 15:10:32;;;;;;;28.83;26.70;;;;;;;;;;5074653;28;20910;-76
2022/11/24 15:13:03;;;;;;;28.37;25.93;;;;;;;;;;5074976;28;20484;-84
2022/11/24 15:15:32;;;;;;;26.90;24.87;;;;;;;;;;5074958;28;20480;-88
2022/11/24 15:18:00;;;;;;;30.53;28.20;;;;;;;;;;5075817;28;20469;-85
2022/11/24 15:20:29;;;;;;;28.07;25.60;;;;;;;;;;5074339;28;20434;-77
2022/11/24 15:23:14;;;;;;;31.03;27.77;;;;;;;;;;5075479;28;20432;-79
2022/11/24 15:25:42;;;;;;;28.17;26.07;;;;;;;;;;5068265;28;20469;-81
2022/11/24 15:28:10;;;;;;;28.10;25.80;;;;;;;;;;5076800;28;20465;-80
2022/11/24 15:30:37;;;;;;;30.80;28.00;;;;;;;;;;5077794;28;20481;-81
2022/11/24 15:33:11;;;;;;;29.70;27.20;;;;;;;;;;5076827;28;20479;-81
2022/11/24 15:35:38;;;;;;;30.00;27.50;;;;;;;;;;5077242;28;20472;-81
2022/11/24 15:38:05;;;;;;;28.80;26.70;;;;;;;;;;5077452;28;20454;-82
2022/11/24 15:40:33;;;;;;;28.30;26.30;;;;;;;;;;5077464;28;20464;-81
2022/11/24 15:43:01;;;;;;;30.03;27.63;;;;;;;;;;5075851;28;20448;-80
2022/11/24 15:45:29;;;;;;;33.07;30.07;;;;;;;;;;5076896;28;20466;-79
2022/11/24 15:47:56;;;;;;;29.40;27.10;;;;;;;;;;5076694;28;20445;-80
2022/11/24 15:50:23;;;;;;;30.20;27.73;;;;;;;;;;5076822;28;20506;-79
2022/11/24 15:52:50;;;;;;;30.80;28.23;;;;;;;;;;5075798;28;20887;-80
2022/11/24 15:55:18;;;;;;;31.73;29.03;;;;;;;;;;5076158;28;20462;-79
2022/11/24 15:57:46;;;;;;;32.43;29.30;;;;;;;;;;5075341;28;20469;-80
2022/11/24 16:00:19;;;;;;;31.80;29.20;;;;;;;;;;5076383;28;20453;-81
2022/11/24 16:02:46;;;;;;;32.70;30.00;;;;;;;;;;5076714;28;20436;-79
2022/11/24 16:05:14;;;;;;;30.70;28.20;;;;;;;;;;5079782;28;20800;-80
2022/11/24 16:07:41;;;;;;;31.33;28.80;;;;;;;;;;5084780;28;20454;-79
2022/11/24 16:10:13;;;;;;;35.07;31.57;;;;;;;;;;5076283;28;20941;-79
2022/11/24 16:12:40;;;;;;;32.40;29.90;;;;;;;;;;5081674;28;20480;-79
2022/11/24 16:15:09;;;;;;;33.77;30.53;;;;;;;;;;5082122;28;20435;-89
2022/11/24 16:17:37;;;;;;;32.70;30.00;;;;;;;;;;5092745;28;20943;-78
2022/11/24 16:20:05;;;;;;;33.73;31.17;;;;;;;;;;5093224;28;20452;-79
2022/11/24 16:22:32;;;;;;;31.57;29.23;;;;;;;;;;5092768;28;20451;-79
2022/11/24 16:24:59;;;;;;;32.20;29.40;;;;;;;;;;5077308;28;20499;-78
2022/11/24 16:27:26;;;;;;;31.80;29.10;;;;;;;;;;5093566;28;20435;-79
2022/11/24 16:29:53;;;;;;;32.33;29.47;;;;;;;;;;5093764;28;20452;-79
2022/11/24 16:32:20;;;;;;;30.00;27.13;;;;;;;;;;5092592;28;20477;-79
2022/11/24 16:34:48;;;;;;;30.83;28.30;;;;;;;;;;5093235;28;20833;-78
2022/11/24 16:37:15;;;;;;;33.10;30.10;;;;;;;;;;5092896;28;20986;-79
2022/11/24 16:39:42;;;;;;;30.40;27.90;;;;;;;;;;5093279;28;20502;-78
2022/11/24 16:42:09;;;;;;;28.10;25.27;;;;;;;;;;5097080;28;20452;-87
2022/11/24 16:44:37;;;;;;;26.47;24.80;;;;;;;;;;5098023;28;20448;-87
2022/11/24 16:47:04;;;;;;;28.33;26.20;;;;;;;;;;5096756;28;20445;-78
2022/11/24 16:49:37;;;;;;;28.30;26.20;;;;;;;;;;5096880;28;20814;-80
2022/11/24 16:52:07;;;;;;;28.00;25.90;;;;;;;;;;5091671;28;20423;-80
2022/11/24 16:54:34;;;;;;;28.83;26.60;;;;;;;;;;5094436;28;20591;-82
2022/11/24 16:57:01;;;;;;;29.43;26.73;;;;;;;;;;5096436;28;20450;-79
2022/11/24 16:59:31;;;;;;;28.63;26.20;;;;;;;;;;5095244;28;20451;-80
2022/11/24 17:02:00;;;;;;;27.47;25.20;;;;;;;;;;5092991;28;20433;-77
2022/11/24 17:04:42;;;;;;;27.83;25.93;;;;;;;;;;5093576;28;20429;-86
2022/11/24 17:07:12;;;;;;;27.87;25.37;;;;;;;;;;5094314;28;20512;-85
2022/11/24 17:09:39;;;;;;;28.70;25.90;;;;;;;;;;5097724;28;20417;-86
2022/11/24 17:12:08;;;;;;;27.07;24.90;;;;;;;;;;5097478;28;20947;-86
2022/11/24 17:14:35;;;;;;;28.30;26.17;;;;;;;;;;5098946;28;20582;-85
2022/11/24 17:17:02;;;;;;;29.27;26.77;;;;;;;;;;5098026;28;20994;-86
2022/11/24 17:19:30;;;;;;;28.17;26.27;;;;;;;;;;5102649;28;20461;-79
2022/11/24 17:21:57;;;;;;;30.20;27.70;;;;;;;;;;5098741;28;20511;-83
2022/11/24 17:24:27;;;;;;;30.77;28.40;;;;;;;;;;5097047;28;20448;-78
2022/11/24 17:26:54;;;;;;;30.70;28.40;;;;;;;;;;5095868;28;20470;-78
2022/11/24 17:29:21;;;;;;;30.53;27.80;;;;;;;;;;5096680;28;20452;-78
2022/11/24 17:31:48;;;;;;;32.83;30.00;;;;;;;;;;5096820;28;20456;-79
2022/11/24 17:34:15;;;;;;;31.20;28.80;;;;;;;;;;5097602;28;20484;-79
2022/11/24 17:36:44;;;;;;;34.27;31.00;;;;;;;;;;5097668;28;20475;-80
2022/11/24 17:39:12;;;;;;;33.10;30.17;;;;;;;;;;5097840;28;20835;-79
2022/11/24 17:41:40;;;;;;;33.27;30.47;;;;;;;;;;5097537;28;20936;-83
2022/11/24 17:44:09;;;;;;;33.13;30.33;;;;;;;;;;5097005;28;20443;-78
2022/11/24 17:46:37;;;;;;;35.47;32.40;;;;;;;;;;5097725;28;20475;-79
2022/11/24 17:49:07;;;;;;;34.50;31.90;;;;;;;;;;5097802;28;20459;-78
2022/11/24 17:51:34;;;;;;;35.30;32.20;;;;;;;;;;5097272;28;20950;-79
2022/11/24 17:54:01;;;;;;;34.37;31.63;;;;;;;;;;5096666;28;20510;-80
2022/11/24 17:56:28;;;;;;;34.35;31.50;;;;;;;;;;5097126;28;20439;-78
2022/11/24 17:58:57;;;;;;;34.80;31.83;;;;;;;;;;5097467;28;20654;-80
2022/11/24 18:01:30;;;;;;;34.73;31.37;;;;;;;;;;5097276;28;20448;-79
2022/11/24 18:03:57;;;;;;;34.97;32.13;;;;;;;;;;5096807;28;20535;-78
2022/11/24 18:09:27;;;;;;;35.67;32.67;;;;;;;;;;5094991;28;20408;-78
2022/11/24 18:11:54;;;;;;;37.03;33.05;;;;;;;;;;5096570;28;20462;-79
2022/11/24 18:14:23;;;;;;;35.42;32.30;;;;;;;;;;5096995;28;20218;-79
2022/11/24 18:16:50;;;;;;;34.25;31.42;;;;;;;;;;5100403;28;20209;-79
2022/11/24 18:19:17;;;;;;;35.70;32.93;;;;;;;;;;5095215;28;20784;-78
2022/11/24 18:21:45;;;;;;;36.03;32.72;;;;;;;;;;5096322;28;20970;-78
2022/11/24 18:24:13;;;;;;;37.42;34.30;;;;;;;;;;5097409;28;20247;-79
2022/11/24 18:26:41;;;;;;;33.63;30.97;;;;;;;;;;5094913;28;20222;-79
2022/11/24 18:29:09;;;;;;;35.03;31.73;;;;;;;;;;5096984;28;20418;-80
2022/11/24 18:31:37;;;;;;;39.63;36.08;;;;;;;;;;5096756;28;20471;-78
2022/11/24 18:34:05;;;;;;;35.03;32.33;;;;;;;;;;5095032;28;20225;-78
2022/11/24 18:36:33;;;;;;;37.22;34.33;;;;;;;;;;5095461;28;20804;-79
2022/11/24 18:39:02;;;;;;;35.35;31.98;;;;;;;;;;5095475;28;20215;-78
2022/11/24 18:41:30;;;;;;;33.67;31.13;;;;;;;;;;5095609;28;20206;-78
2022/11/24 18:43:59;;;;;;;34.80;31.60;;;;;;;;;;5092595;28;20211;-82
2022/11/24 18:46:26;;;;;;;33.92;30.98;;;;;;;;;;5075799;28;20985;-79
2022/11/24 18:48:55;;;;;;;32.90;30.27;;;;;;;;;;5077198;28;20213;-78
2022/11/24 18:51:22;;;;;;;35.27;31.73;;;;;;;;;;5076618;28;20453;-81
2022/11/24 18:53:53;;;;;;;33.72;30.27;;;;;;;;;;5076788;28;20488;-78
2022/11/24 18:56:20;;;;;;;33.15;30.05;;;;;;;;;;5080228;28;20221;-79
2022/11/24 18:58:47;;;;;;;34.13;31.02;;;;;;;;;;5095094;28;20212;-79
2022/11/24 19:01:15;;;;;;;34.30;31.45;;;;;;;;;;5095611;28;20212;-80
2022/11/24 19:03:44;;;;;;;34.42;31.20;;;;;;;;;;5094610;28;20205;-80
2022/11/24 19:06:14;;;;;;;33.00;30.17;;;;;;;;;;5094179;28;20278;-80
2022/11/24 19:08:42;;;;;;;33.47;30.88;;;;;;;;;;5094253;28;20463;-79
2022/11/24 19:11:16;;;;;;;34.53;31.67;;;;;;;;;;5094636;28;20224;-80
2022/11/24 19:13:58;;;;;;;33.30;30.65;;;;;;;;;;5094380;28;20218;-81
2022/11/24 19:16:25;;;;;;;34.83;32.03;;;;;;;;;;5092122;28;20231;-80
2022/11/24 19:18:52;;;;;;;34.57;31.97;;;;;;;;;;5094315;28;20224;-80
2022/11/24 19:21:21;;;;;;;36.00;32.90;;;;;;;;;;5094870;28;20443;-80
2022/11/24 19:23:48;;;;;;;35.10;32.20;;;;;;;;;;5093120;28;20453;-80
2022/11/24 19:26:15;;;;;;;33.90;31.38;;;;;;;;;;5094004;28;20498;-89
2022/11/24 19:28:42;;;;;;;35.60;32.55;;;;;;;;;;5094573;28;20214;-90
2022/11/24 19:31:10;;;;;;;34.80;31.93;;;;;;;;;;5093273;28;20213;-90
2022/11/24 19:33:38;;;;;;;34.85;31.67;;;;;;;;;;5094445;28;20486;-80
2022/11/24 19:36:06;;;;;;;36.65;33.28;;;;;;;;;;5093128;28;20324;-80
2022/11/24 19:38:35;;;;;;;47.13;42.83;;;;;;;;;;5094291;28;20220;-80
2022/11/24 19:41:02;;;;;;;34.35;31.65;;;;;;;;;;5093714;28;20957;-80
2022/11/24 19:43:30;;;;;;;34.05;30.95;;;;;;;;;;5093463;28;20529;-79
2022/11/24 19:46:00;;;;;;;32.72;30.20;;;;;;;;;;5093162;28;20244;-80
2022/11/24 19:48:30;;;;;;;33.83;30.63;;;;;;;;;;5093752;28;20217;-80
2022/11/24 19:50:58;;;;;;;32.15;29.70;;;;;;;;;;5093080;28;20219;-80
2022/11/24 19:53:25;;;;;;;31.63;29.33;;;;;;;;;;5092837;28;20236;-80
2022/11/24 19:55:54;;;;;;;32.80;30.27;;;;;;;;;;5092497;28;20661;-80
2022/11/24 19:58:21;;;;;;;32.80;30.10;;;;;;;;;;5092431;28;20207;-79
2022/11/24 20:00:48;;;;;;;33.30;30.67;;;;;;;;;;5093807;28;20209;-79
2022/11/24 20:03:15;;;;;;;32.23;29.50;;;;;;;;;;5092594;28;20584;-80
2022/11/24 20:05:42;;;;;;;32.33;29.80;;;;;;;;;;5093504;28;20471;-81
2022/11/24 20:08:09;;;;;;;32.08;29.10;;;;;;;;;;5092637;28;20331;-79
2022/11/24 20:10:38;;;;;;;32.88;30.17;;;;;;;;;;5092928;28;20210;-80
2022/11/24 20:13:07;;;;;;;32.05;29.52;;;;;;;;;;5092676;28;20595;-80
2022/11/24 20:15:34;;;;;;;31.77;29.15;;;;;;;;;;5092261;28;20233;-80
2022/11/24 20:18:01;;;;;;;33.27;30.07;;;;;;;;;;5091105;28;20220;-79
2022/11/24 20:20:28;;;;;;;32.20;29.63;;;;;;;;;;5092458;28;21055;-78
2022/11/24 20:22:55;;;;;;;32.00;29.58;;;;;;;;;;5091620;28;20214;-80
2022/11/24 20:25:22;;;;;;;31.90;29.35;;;;;;;;;;5092064;28;20225;-79
2022/11/24 20:27:49;;;;;;;33.20;29.87;;;;;;;;;;5091761;28;20218;-80
2022/11/24 20:30:17;;;;;;;32.50;29.80;;;;;;;;;;5092391;28;20479;-79
2022/11/24 20:32:44;;;;;;;31.92;29.10;;;;;;;;;;5091403;28;20217;-79
2022/11/24 20:35:12;;;;;;;32.65;30.20;;;;;;;;;;5091744;28;20238;-80
2022/11/24 20:37:39;;;;;;;33.03;30.33;;;;;;;;;;5092136;28;20641;-80
2022/11/24 20:40:07;;;;;;;34.28;30.55;;;;;;;;;;5092284;28;20467;-79
2022/11/24 20:42:36;;;;;;;34.25;31.17;;;;;;;;;;5091404;28;20706;-80
2022/11/24 20:45:03;;;;;;;49.85;39.97;;;;;;;;;;5091322;28;20233;-79
2022/11/24 20:47:31;;;;;;;38.80;34.60;;;;;;;;;;5091611;28;20208;-79
2022/11/24 20:49:58;;;;;;;36.30;32.97;;;;;;;;;;5091338;28;20747;-80
2022/11/24 20:52:25;;;;;;;34.50;31.25;;;;;;;;;;5091848;28;20451;-78
2022/11/24 20:54:52;;;;;;;35.40;32.05;;;;;;;;;;5091691;28;20278;-80
2022/11/24 20:57:19;;;;;;;32.80;29.60;;;;;;;;;;5092214;28;20207;-79
2022/11/24 20:59:47;;;;;;;31.60;28.85;;;;;;;;;;5091473;28;20578;-80
2022/11/24 21:02:14;;;;;;;31.08;28.65;;;;;;;;;;5090856;28;20221;-80
2022/11/24 21:04:42;;;;;;;30.17;28.08;;;;;;;;;;5091615;28;20215;-79
2022/11/24 21:07:12;;;;;;;31.00;28.25;;;;;;;;;;5092689;28;20213;-80
2022/11/24 21:09:39;;;;;;;29.80;27.50;;;;;;;;;;5093730;28;20224;-80
2022/11/24 21:12:06;;;;;;;32.17;28.75;;;;;;;;;;5093076;28;20483;-79
2022/11/24 21:14:33;;;;;;;30.60;27.80;;;;;;;;;;5092218;28;20225;-80
2022/11/24 21:17:00;;;;;;;30.23;27.93;;;;;;;;;;5092704;28;20218;-78
2022/11/24 21:19:27;;;;;;;30.92;28.20;;;;;;;;;;5096494;28;20462;-80
2022/11/24 21:21:55;;;;;;;29.98;27.60;;;;;;;;;;5095694;28;20212;-79
2022/11/24 21:24:22;;;;;;;29.65;27.15;;;;;;;;;;5096924;28;20198;-80
2022/11/24 21:26:51;;;;;;;30.08;27.20;;;;;;;;;;5096542;28;20208;-80
2022/11/24 21:29:21;;;;;;;30.77;27.98;;;;;;;;;;5096329;28;20210;-79
2022/11/24 21:31:48;;;;;;;30.05;27.52;;;;;;;;;;5095625;28;20210;-80
2022/11/24 21:34:17;;;;;;;28.45;25.80;;;;;;;;;;5096538;28;20617;-79
2022/11/24 21:36:44;;;;;;;29.58;27.38;;;;;;;;;;5095900;28;20692;-80
2022/11/24 21:39:13;;;;;;;28.92;26.65;;;;;;;;;;5096640;28;20294;-79
2022/11/24 21:41:40;;;;;;;28.27;25.70;;;;;;;;;;5095599;28;20218;-78
2022/11/24 21:44:08;;;;;;;28.60;26.38;;;;;;;;;;5095983;28;20271;-80
2022/11/24 21:46:36;;;;;;;28.15;25.88;;;;;;;;;;5096499;28;20230;-79
2022/11/24 21:49:03;;;;;;;29.15;26.85;;;;;;;;;;5097796;28;20209;-79
2022/11/24 21:51:30;;;;;;;26.92;24.88;;;;;;;;;;5096087;28;20684;-80
2022/11/24 21:53:57;;;;;;;27.48;25.27;;;;;;;;;;5095920;28;20232;-79
2022/11/24 21:56:26;;;;;;;28.30;26.00;;;;;;;;;;5099370;28;20227;-79
2022/11/24 21:58:54;;;;;;;27.13;24.83;;;;;;;;;;5100283;28;20205;-79
2022/11/24 22:01:22;;;;;;;29.02;26.50;;;;;;;;;;5099133;28;20280;-80
2022/11/24 22:03:49;;;;;;;28.02;25.63;;;;;;;;;;5098361;28;20236;-79
2022/11/24 22:06:17;;;;;;;28.80;26.30;;;;;;;;;;5096222;28;20222;-79
2022/11/24 22:08:46;;;;;;;29.33;26.80;;;;;;;;;;5096948;28;20204;-79
2022/11/24 22:11:14;;;;;;;30.42;27.73;;;;;;;;;;5099294;28;20201;-79
2022/11/24 22:13:43;;;;;;;29.10;26.90;;;;;;;;;;5098403;28;20204;-80
2022/11/24 22:16:12;;;;;;;30.35;27.95;;;;;;;;;;5098252;28;20611;-79
2022/11/24 22:18:40;;;;;;;35.10;31.52;;;;;;;;;;5099266;28;20216;-79
2022/11/24 22:21:07;;;;;;;28.98;26.67;;;;;;;;;;5099388;28;20201;-80
2022/11/24 22:23:35;;;;;;;31.42;28.13;;;;;;;;;;5098083;28;20201;-80
2022/11/24 22:26:03;;;;;;;29.00;26.65;;;;;;;;;;5099175;28;20233;-79
2022/11/24 22:28:31;;;;;;;28.98;26.85;;;;;;;;;;5099180;28;20634;-80
2022/11/24 22:31:03;;;;;;;31.30;28.40;;;;;;;;;;5099145;28;20632;-79
2022/11/24 22:33:30;;;;;;;30.13;27.48;;;;;;;;;;5098019;28;20229;-80
2022/11/24 22:35:58;;;;;;;28.30;25.85;;;;;;;;;;5098251;28;20231;-79
2022/11/24 22:38:25;;;;;;;28.42;26.02;;;;;;;;;;5098891;28;20236;-80
2022/11/24 22:40:52;;;;;;;28.58;26.08;;;;;;;;;;5097972;28;20213;-80
2022/11/24 22:43:19;;;;;;;26.85;24.45;;;;;;;;;;5098244;28;20204;-79
2022/11/24 22:45:46;;;;;;;27.77;25.35;;;;;;;;;;5098704;28;20221;-80
2022/11/24 22:48:14;;;;;;;26.58;24.00;;;;;;;;;;5098866;28;20203;-80
2022/11/24 22:50:41;;;;;;;25.42;23.30;;;;;;;;;;5098132;28;20606;-81
2022/11/24 22:53:08;;;;;;;27.15;24.55;;;;;;;;;;5098055;28;20257;-80